Time;durP1;ratioP1;P1;durP2;ratioP2;P2;SDS_P1;SDS_P2;PMS_P1;PMS_P2;Temp;Humidity;BMP_temperature;BMP_pressure;BME280_temperature;BME280_humidity;BME280_pressure;Samples;Min_cycle;Max_cycle;Signal;HPM_P1;HPM_P2
2021/01/08 00:00:13;;;;;;;19.53;10.60;;;154.10;2252.80;;;;;;4998004;28;20038;-84
2021/01/08 00:02:38;;;;;;;14.67;10.97;;;154.10;2252.80;;;;;;5015434;28;20076;-84
2021/01/08 00:05:05;;;;;;;17.70;11.67;;;154.20;2252.80;;;;;;5015779;28;20030;-86
2021/01/08 00:07:34;;;;;;;18.70;11.80;;;154.10;2252.80;;;;;;5014855;28;20056;-84
2021/01/08 00:10:00;;;;;;;17.77;11.43;;;154.20;2252.80;;;;;;4998035;28;20061;-85
2021/01/08 00:12:30;;;;;;;22.73;12.13;;;154.20;2252.80;;;;;;4998034;28;20025;-85
2021/01/08 00:14:56;;;;;;;18.93;10.53;;;154.10;2252.80;;;;;;4998196;28;20045;-82
2021/01/08 00:17:22;;;;;;;23.67;12.17;;;154.00;2252.80;;;;;;4997968;28;20026;-84
2021/01/08 00:19:47;;;;;;;16.20;12.23;;;154.20;2252.80;;;;;;4997300;28;20048;-84
2021/01/08 00:22:13;;;;;;;30.33;18.90;;;154.20;2252.80;;;;;;4998316;28;20050;-86
2021/01/08 00:24:39;;;;;;;20.30;13.10;;;154.20;2252.80;;;;;;4997960;28;20029;-84
2021/01/08 00:27:05;;;;;;;22.17;12.70;;;154.20;2252.80;;;;;;4997946;28;20390;-82
2021/01/08 00:29:30;;;;;;;20.27;12.13;;;154.20;2252.80;;;;;;4997145;28;20369;-85
2021/01/08 00:31:56;;;;;;;14.90;10.03;;;154.20;2252.80;;;;;;4997973;28;20026;-85
2021/01/08 00:34:22;;;;;;;17.77;10.87;;;154.20;2252.80;;;;;;4996726;28;20026;-83
2021/01/08 00:36:56;;;;;;;23.10;13.07;;;154.20;2252.80;;;;;;4996721;28;20034;-84
2021/01/08 00:39:23;;;;;;;26.67;16.10;;;154.20;2252.80;;;;;;4997113;28;20036;-84
2021/01/08 00:41:49;;;;;;;22.70;14.23;;;154.30;2252.80;;;;;;4997260;28;20030;-86
2021/01/08 00:44:16;;;;;;;26.67;18.23;;;154.50;2252.80;;;;;;4997130;28;20026;-82
2021/01/08 00:46:46;;;;;;;23.90;14.47;;;154.50;2252.80;;;;;;4997407;28;20030;-83
2021/01/08 00:49:13;;;;;;;62.73;41.90;;;154.50;2252.80;;;;;;4997089;28;20033;-83
2021/01/08 00:51:39;;;;;;;34.60;21.23;;;154.30;2252.80;;;;;;4997027;28;20062;-86
2021/01/08 00:54:05;;;;;;;31.17;18.03;;;154.30;2252.80;;;;;;5014602;28;20061;-84
2021/01/08 00:56:32;;;;;;;32.47;21.90;;;154.30;2252.80;;;;;;4997281;28;20030;-82
2021/01/08 00:58:58;;;;;;;27.10;15.57;;;154.30;2252.80;;;;;;4997136;28;20040;-85
2021/01/08 01:01:24;;;;;;;22.10;12.93;;;154.20;2252.80;;;;;;4996615;28;20048;-82
2021/01/08 01:03:50;;;;;;;16.37;12.23;;;154.30;2252.80;;;;;;4996540;28;20030;-82
2021/01/08 01:06:32;;;;;;;14.48;10.98;;;154.20;2252.80;;;;;;5014967;28;20109;-82
2021/01/08 01:08:59;;;;;;;15.15;12.30;;;154.30;2252.80;;;;;;4992751;28;20108;-82
2021/01/08 01:11:27;;;;;;;15.27;9.40;;;154.00;2252.80;;;;;;4997253;28;20025;-88
2021/01/08 01:13:57;;;;;;;14.87;8.83;;;154.10;2252.80;;;;;;4997659;28;20025;-85
2021/01/08 01:16:24;;;;;;;14.53;10.87;;;154.00;2252.80;;;;;;4997696;28;20122;-88
2021/01/08 01:18:51;;;;;;;18.85;12.25;;;153.90;2252.80;;;;;;4997100;28;20025;-86
2021/01/08 01:21:18;;;;;;;15.63;9.77;;;153.80;2252.80;;;;;;4997290;28;20137;-86
2021/01/08 01:23:43;;;;;;;17.63;9.77;;;153.70;2252.80;;;;;;4997180;28;20536;-87
2021/01/08 01:26:09;;;;;;;13.27;8.23;;;153.60;2252.80;;;;;;4997830;28;20057;-90
2021/01/08 01:28:36;;;;;;;12.90;8.20;;;153.70;2252.80;;;;;;4997255;28;20480;-89
2021/01/08 01:31:03;;;;;;;13.40;8.33;;;153.80;2252.80;;;;;;4997705;28;20025;-89
2021/01/08 01:33:29;;;;;;;11.93;6.90;;;153.90;2252.80;;;;;;4996792;28;20053;-90
2021/01/08 01:35:57;;;;;;;19.83;11.67;;;153.90;2252.80;;;;;;4997574;28;20052;-90
2021/01/08 01:38:23;;;;;;;16.20;10.63;;;153.90;2252.80;;;;;;4996854;28;20018;-89
2021/01/08 01:40:49;;;;;;;15.37;10.17;;;154.00;2252.80;;;;;;4998312;28;20038;-91
2021/01/08 01:43:16;;;;;;;16.83;10.30;;;153.90;2252.80;;;;;;4997978;28;20089;-87
2021/01/08 01:45:42;;;;;;;19.73;11.63;;;153.90;2252.80;;;;;;4999740;28;20076;-85
2021/01/08 01:48:09;;;;;;;15.97;11.10;;;154.00;2252.80;;;;;;5000615;28;20026;-87
2021/01/08 01:50:35;;;;;;;23.47;13.73;;;153.80;2252.80;;;;;;5000722;28;20057;-87
2021/01/08 01:53:01;;;;;;;26.73;14.87;;;153.70;2252.80;;;;;;5017967;28;20141;-89
2021/01/08 01:55:28;;;;;;;19.30;13.10;;;153.70;2252.80;;;;;;5001040;28;20025;-87
2021/01/08 01:57:53;;;;;;;27.47;12.13;;;153.70;2252.80;;;;;;5001338;28;20026;-89
2021/01/08 02:00:20;;;;;;;15.43;10.27;;;153.60;2252.80;;;;;;5001377;28;20466;-87
2021/01/08 02:03:17;;;;;;;18.20;11.40;;;128.90;2252.80;;;;;;5003922;28;20026;-86
2021/01/08 02:05:46;;;;;;;15.83;9.97;;;153.60;2252.80;;;;;;5004113;28;20037;-89
2021/01/08 02:08:22;;;;;;;15.63;9.60;;;128.90;2252.80;;;;;;5001521;28;20049;-89
2021/01/08 02:11:01;;;;;;;15.47;9.97;;;128.80;2252.80;;;;;;5001130;28;20129;-87
2021/01/08 02:13:55;;;;;;;13.47;8.90;;;128.80;2252.80;;;;;;5011606;28;20022;-87
2021/01/08 02:16:22;;;;;;;10.00;7.38;;;128.80;2252.80;;;;;;5017936;28;20026;-88
2021/01/08 02:18:51;;;;;;;11.57;7.70;;;128.80;2252.80;;;;;;5013344;28;20034;-87
2021/01/08 02:21:55;;;;;;;10.60;6.27;;;128.70;2252.80;;;;;;5016024;28;20058;-87
2021/01/08 02:24:43;;;;;;;10.33;6.43;;;128.50;2252.80;;;;;;4938355;29;20032;-88
2021/01/08 02:27:09;;;;;;;9.60;5.60;;;128.40;2252.80;;;;;;4939403;29;20059;-86
2021/01/08 02:29:36;;;;;;;7.73;5.20;;;128.30;2252.80;;;;;;4935115;29;20023;-86
2021/01/08 02:32:02;;;;;;;8.87;6.13;;;128.30;2252.80;;;;;;4935645;29;20028;-87
2021/01/08 02:34:28;;;;;;;8.60;6.07;;;128.30;2252.80;;;;;;4937516;29;20113;-88
2021/01/08 02:36:55;;;;;;;6.63;5.10;;;128.20;2252.80;;;;;;4924363;29;20501;-87
2021/01/08 02:39:22;;;;;;;9.43;5.63;;;128.20;2252.80;;;;;;4924704;29;20032;-87
2021/01/08 02:41:52;;;;;;;8.00;5.73;;;128.20;2252.80;;;;;;4923760;29;20103;-90
2021/01/08 02:44:19;;;;;;;9.63;6.80;;;128.10;2252.80;;;;;;4922684;29;20227;-86
2021/01/08 02:46:45;;;;;;;9.63;5.70;;;128.10;2252.80;;;;;;4921742;29;20139;-87
2021/01/08 02:49:11;;;;;;;9.30;6.30;;;128.10;2252.80;;;;;;4921808;29;20031;-90
2021/01/08 02:51:38;;;;;;;9.07;5.43;;;128.00;2252.80;;;;;;4922007;29;20047;-89
2021/01/08 02:54:07;;;;;;;7.17;3.90;;;103.30;2227.20;;;;;;4922059;29;20040;-89
2021/01/08 02:56:40;;;;;;;6.83;3.80;;;103.20;2227.20;;;;;;4921142;29;20031;-89
2021/01/08 02:59:07;;;;;;;10.67;3.73;;;103.20;2227.20;;;;;;4938374;28;20128;-87
2021/01/08 03:01:35;;;;;;;5.50;4.37;;;103.20;2227.20;;;;;;4999021;28;20042;-89
2021/01/08 03:04:01;;;;;;;9.10;5.60;;;103.30;2227.20;;;;;;5000000;28;20403;-89
2021/01/08 03:06:28;;;;;;;9.77;5.40;;;103.30;2227.20;;;;;;4999205;28;20051;-88
2021/01/08 03:08:58;;;;;;;9.90;5.17;;;128.00;2252.80;;;;;;4999181;28;20025;-86
2021/01/08 03:11:23;;;;;;;10.93;6.03;;;103.30;2227.20;;;;;;4999378;28;20030;-89
2021/01/08 03:13:50;;;;;;;8.27;5.37;;;128.00;2252.80;;;;;;4999782;28;20030;-88
2021/01/08 03:16:17;;;;;;;5.97;3.93;;;128.00;2252.80;;;;;;4999180;28;20468;-89
2021/01/08 03:18:43;;;;;;;9.27;4.80;;;103.30;2227.20;;;;;;4998848;28;20037;-87
2021/01/08 03:21:08;;;;;;;13.43;7.23;;;103.30;2227.20;;;;;;4998992;28;20045;-89
2021/01/08 03:23:34;;;;;;;11.33;6.10;;;128.00;2252.80;;;;;;4999229;28;20026;-86
2021/01/08 03:26:00;;;;;;;7.70;3.93;;;128.00;2252.80;;;;;;4999913;28;20403;-86
2021/01/08 03:28:26;;;;;;;11.87;6.80;;;128.00;2252.80;;;;;;5000044;28;20033;-86
2021/01/08 03:30:52;;;;;;;20.33;9.23;;;128.00;2252.80;;;;;;4999810;28;20494;-86
2021/01/08 03:33:18;;;;;;;12.47;7.63;;;128.00;2252.80;;;;;;4997930;28;20096;-90
2021/01/08 03:35:43;;;;;;;12.70;6.53;;;128.00;2252.80;;;;;;4998781;28;20076;-86
2021/01/08 03:38:09;;;;;;;10.20;5.70;;;128.00;2252.80;;;;;;4998544;28;20026;-87
2021/01/08 03:40:36;;;;;;;10.23;6.03;;;128.10;2252.80;;;;;;4998699;28;20044;-88
2021/01/08 03:43:03;;;;;;;10.33;5.53;;;128.20;2252.80;;;;;;4998701;28;20026;-89
2021/01/08 03:45:28;;;;;;;20.80;9.23;;;128.10;2252.80;;;;;;4998839;28;20034;-88
2021/01/08 03:47:54;;;;;;;14.23;8.23;;;128.10;2252.80;;;;;;4999104;28;20498;-90
2021/01/08 03:50:20;;;;;;;17.47;10.00;;;128.10;2252.80;;;;;;4998584;28;20022;-87
2021/01/08 03:52:45;;;;;;;26.03;12.90;;;128.00;2252.80;;;;;;4999899;28;20057;-90
2021/01/08 03:55:11;;;;;;;26.80;13.83;;;128.00;2252.80;;;;;;4998885;28;20026;-89
2021/01/08 03:57:37;;;;;;;26.60;12.63;;;128.10;2252.80;;;;;;4998535;28;20026;-88
2021/01/08 04:00:07;;;;;;;15.67;8.87;;;128.20;2252.80;;;;;;4998342;28;20064;-90
2021/01/08 04:02:33;;;;;;;17.40;9.57;;;128.20;2252.80;;;;;;4995489;28;20034;-89
2021/01/08 04:04:59;;;;;;;8.97;5.00;;;128.30;2252.80;;;;;;4998077;28;20030;-87
2021/01/08 04:07:25;;;;;;;13.70;7.60;;;128.20;2252.80;;;;;;4998039;28;20388;-88
2021/01/08 04:09:51;;;;;;;8.07;4.40;;;128.30;2252.80;;;;;;4998269;28;20026;-88
2021/01/08 04:12:16;;;;;;;7.90;5.73;;;128.20;2252.80;;;;;;4998225;28;20118;-89
2021/01/08 04:14:43;;;;;;;11.83;6.50;;;128.20;2252.80;;;;;;4998482;28;20030;-87
2021/01/08 04:17:09;;;;;;;11.37;7.73;;;128.10;2252.80;;;;;;4998188;28;20026;-88
2021/01/08 04:19:34;;;;;;;11.17;7.07;;;128.20;2252.80;;;;;;5000297;28;20030;-86
2021/01/08 04:22:00;;;;;;;9.07;6.20;;;128.20;2252.80;;;;;;4997886;28;20081;-89
2021/01/08 04:24:26;;;;;;;9.83;4.67;;;128.30;2252.80;;;;;;4998342;28;20113;-89
2021/01/08 04:26:52;;;;;;;12.60;6.67;;;128.30;2252.80;;;;;;4998903;28;20064;-86
2021/01/08 04:29:18;;;;;;;16.57;9.03;;;128.20;2252.80;;;;;;4997723;28;20049;-89
2021/01/08 04:31:44;;;;;;;12.90;7.47;;;128.20;2252.80;;;;;;4997696;28;20030;-88
2021/01/08 04:34:09;;;;;;;11.00;6.67;;;128.10;2252.80;;;;;;4998298;28;20030;-87
2021/01/08 04:36:35;;;;;;;9.87;5.10;;;128.10;2252.80;;;;;;4997672;28;20029;-86
2021/01/08 04:39:01;;;;;;;9.97;5.57;;;128.20;2252.80;;;;;;4997769;28;20025;-87
2021/01/08 04:41:28;;;;;;;8.40;4.90;;;128.30;2252.80;;;;;;4998045;28;20377;-90
2021/01/08 04:43:54;;;;;;;5.63;3.47;;;128.30;2252.80;;;;;;4997207;28;20033;-86
2021/01/08 04:46:25;;;;;;;7.07;3.37;;;128.40;2252.80;;;;;;5015433;28;20026;-90
2021/01/08 04:49:11;;;;;;;6.67;3.30;;;128.50;2252.80;;;;;;4997577;28;20084;-88
2021/01/08 04:51:38;;;;;;;5.00;2.90;;;128.50;2252.80;;;;;;4997616;28;20038;-86
2021/01/08 04:54:05;;;;;;;5.03;3.30;;;128.50;2252.80;;;;;;4997762;28;20025;-90
2021/01/08 04:56:40;;;;;;;5.23;3.13;;;128.40;2252.80;;;;;;4998235;28;20476;-89
2021/01/08 04:59:06;;;;;;;5.83;3.70;;;128.40;2252.80;;;;;;4997647;28;20045;-88
2021/01/08 05:01:33;;;;;;;8.70;5.07;;;128.40;2252.80;;;;;;4997286;28;20077;-87
2021/01/08 05:04:01;;;;;;;8.73;4.67;;;128.50;2252.80;;;;;;4996851;28;20480;-87
2021/01/08 05:06:27;;;;;;;7.83;5.03;;;128.50;2252.80;;;;;;5014728;28;20034;-89
2021/01/08 05:08:52;;;;;;;15.93;10.00;;;128.60;2252.80;;;;;;4997183;28;20025;-88
2021/01/08 05:11:26;;;;;;;11.33;6.13;;;128.50;2252.80;;;;;;4996897;28;20369;-88
2021/01/08 05:13:59;;;;;;;24.63;12.23;;;128.50;2252.80;;;;;;4997721;28;20037;-87
2021/01/08 05:16:27;;;;;;;19.83;9.20;;;128.50;2252.80;;;;;;4997933;28;20052;-88
2021/01/08 05:18:54;;;;;;;38.73;19.53;;;128.60;2252.80;;;;;;4996978;28;20041;-90
2021/01/08 05:21:24;;;;;;;48.97;21.70;;;128.50;2252.80;;;;;;5000569;28;20587;-87
2021/01/08 05:23:51;;;;;;;17.13;9.33;;;128.60;2252.80;;;;;;5000685;28;20209;-90
2021/01/08 05:26:17;;;;;;;9.50;5.70;;;128.60;2252.80;;;;;;5000451;28;20061;-89
2021/01/08 05:28:50;;;;;;;6.17;3.80;;;128.70;2252.80;;;;;;5002029;28;20026;-90
2021/01/08 05:31:17;;;;;;;5.10;3.57;;;128.70;2252.80;;;;;;5001114;28;20541;-88
2021/01/08 05:33:43;;;;;;;11.47;7.60;;;128.70;2252.80;;;;;;5000961;28;20029;-88
2021/01/08 05:36:11;;;;;;;12.67;8.13;;;128.70;2252.80;;;;;;5001083;28;20041;-86
2021/01/08 05:38:43;;;;;;;6.13;3.60;;;128.70;2252.80;;;;;;5000796;28;20096;-91
2021/01/08 05:41:11;;;;;;;2.80;2.37;;;128.80;2252.80;;;;;;5018801;28;20106;-88
2021/01/08 05:43:41;;;;;;;5.33;2.97;;;128.70;2252.80;;;;;;5001063;28;20026;-87
2021/01/08 05:46:16;;;;;;;4.10;3.03;;;128.90;2252.80;;;;;;5001623;28;20113;-87
2021/01/08 05:48:52;;;;;;;4.70;3.33;;;128.80;2252.80;;;;;;5000591;28;20029;-87
2021/01/08 05:51:20;;;;;;;8.63;5.87;;;128.80;2252.80;;;;;;5000511;28;20084;-87
2021/01/08 05:53:48;;;;;;;10.17;7.30;;;128.80;2252.80;;;;;;5000440;28;20191;-88
2021/01/08 05:56:16;;;;;;;9.83;6.37;;;128.80;2252.80;;;;;;5000935;28;20045;-89
2021/01/08 05:58:42;;;;;;;7.20;5.00;;;128.80;2252.80;;;;;;5000753;28;20022;-87
2021/01/08 06:01:08;;;;;;;8.87;6.07;;;128.80;2252.80;;;;;;5000401;28;20038;-90
2021/01/08 06:03:36;;;;;;;10.17;7.00;;;128.70;2252.80;;;;;;5000677;28;20022;-90
2021/01/08 06:06:03;;;;;;;42.07;25.13;;;128.70;2252.80;;;;;;5000602;28;20054;-86
2021/01/08 06:08:53;;;;;;;54.60;31.40;;;128.70;2252.80;;;;;;5000506;28;20109;-86
2021/01/08 06:11:29;;;;;;;24.57;18.40;;;128.70;2252.80;;;;;;5001159;28;20509;-88
2021/01/08 06:13:57;;;;;;;32.80;20.40;;;128.60;2252.80;;;;;;5000724;28;20022;-91
2021/01/08 06:16:23;;;;;;;37.83;23.43;;;128.60;2252.80;;;;;;5000457;28;20034;-87
2021/01/08 06:18:55;;;;;;;27.13;15.90;;;128.60;2252.80;;;;;;5000120;28;20435;-85
2021/01/08 06:21:54;;;;;;;14.90;10.68;;;128.60;2252.80;;;;;;4999872;28;20488;-88
2021/01/08 06:24:23;;;;;;;9.70;6.27;;;128.60;2252.80;;;;;;4999507;28;20030;-87
2021/01/08 06:26:50;;;;;;;9.00;6.97;;;128.40;2252.80;;;;;;5000154;28;20506;-89
2021/01/08 06:29:18;;;;;;;12.33;7.30;;;128.40;2252.80;;;;;;5000430;28;20057;-87
2021/01/08 06:31:51;;;;;;;14.67;9.40;;;128.40;2252.80;;;;;;4999611;28;20484;-91
2021/01/08 06:34:25;;;;;;;16.87;10.37;;;128.30;2252.80;;;;;;5003180;28;20033;-87
2021/01/08 06:37:08;;;;;;;18.17;12.43;;;128.30;2252.80;;;;;;4980944;28;20469;-87
2021/01/08 06:39:44;;;;;;;24.02;13.27;;;128.40;2252.80;;;;;;4999414;28;20029;-92
2021/01/08 06:42:18;;;;;;;18.60;11.60;;;128.30;2252.80;;;;;;4999861;28;20030;-87
2021/01/08 06:44:44;;;;;;;15.03;10.00;;;128.20;2252.80;;;;;;4999555;28;20116;-87
2021/01/08 06:47:15;;;;;;;15.00;9.93;;;128.30;2252.80;;;;;;4988968;28;20404;-87
2021/01/08 06:49:49;;;;;;;16.90;11.07;;;128.40;2252.80;;;;;;4980286;28;20147;-88
2021/01/08 06:52:15;;;;;;;17.30;10.67;;;128.50;2252.80;;;;;;4980054;28;20034;-86
2021/01/08 06:54:43;;;;;;;13.90;9.63;;;128.40;2252.80;;;;;;4980043;28;20077;-86
2021/01/08 06:57:17;;;;;;;17.17;11.33;;;128.40;2252.80;;;;;;4980590;28;20034;-87
2021/01/08 06:59:52;;;;;;;15.20;10.60;;;128.40;2252.80;;;;;;4980308;28;20504;-88
2021/01/08 07:02:21;;;;;;;34.17;21.87;;;128.50;2252.80;;;;;;4979818;28;20039;-86
2021/01/08 07:04:47;;;;;;;19.37;15.03;;;128.30;2252.80;;;;;;4979747;28;20037;-91
2021/01/08 07:07:19;;;;;;;24.13;16.67;;;128.30;2252.80;;;;;;4979987;28;20030;-87
2021/01/08 07:09:46;;;;;;;41.30;29.52;;;128.30;2252.80;;;;;;4979856;28;20050;-87
2021/01/08 07:12:13;;;;;;;23.10;16.97;;;128.30;2252.80;;;;;;4993667;28;20042;-90
2021/01/08 07:14:39;;;;;;;17.77;13.13;;;128.10;2252.80;;;;;;5000656;28;20089;-90
2021/01/08 07:17:09;;;;;;;54.97;34.87;;;128.00;2252.80;;;;;;4998833;28;20041;-86
2021/01/08 07:19:38;;;;;;;44.50;29.80;;;128.00;2252.80;;;;;;4991162;28;20037;-90
2021/01/08 07:22:05;;;;;;;26.57;19.63;;;128.00;2252.80;;;;;;4999852;28;20054;-86
2021/01/08 07:24:32;;;;;;;31.63;22.03;;;103.20;2227.20;;;;;;4995867;28;20030;-87
2021/01/08 07:27:17;;;;;;;23.10;16.43;;;103.20;2227.20;;;;;;4995699;28;20042;-87
2021/01/08 07:29:57;;;;;;;21.40;16.20;;;103.00;2227.20;;;;;;4983714;28;20053;-88
2021/01/08 07:32:47;;;;;;;17.20;12.97;;;102.90;2227.20;;;;;;4995677;28;20022;-86
2021/01/08 07:35:18;;;;;;;30.60;18.37;;;102.80;2227.20;;;;;;4987414;28;20026;-87
2021/01/08 07:38:06;;;;;;;24.17;17.33;;;102.70;2227.20;;;;;;4989378;28;20046;-86
2021/01/08 07:40:40;;;;;;;45.93;25.40;;;102.70;2227.20;;;;;;4988341;28;20575;-87
2021/01/08 07:43:10;;;;;;;34.10;20.17;;;102.60;2227.20;;;;;;4978651;28;20117;-86
2021/01/08 07:45:55;;;;;;;28.13;16.17;;;102.60;2227.20;;;;;;4992827;28;20030;-85
2021/01/08 07:48:24;;;;;;;37.70;23.77;;;102.60;2227.20;;;;;;4991262;28;20084;-88
2021/01/08 07:51:00;;;;;;;38.70;25.33;;;102.50;2227.20;;;;;;4998819;28;20044;-86
2021/01/08 07:53:43;;;;;;;28.40;19.47;;;77.70;2227.20;;;;;;4992127;28;20040;-85
2021/01/08 07:56:18;;;;;;;66.13;35.40;;;102.40;2227.20;;;;;;4978883;28;20026;-89
2021/01/08 07:59:05;;;;;;;37.77;22.43;;;77.70;2227.20;;;;;;4986950;28;20030;-89
2021/01/08 08:01:32;;;;;;;38.10;24.83;;;102.40;2227.20;;;;;;4997599;28;20045;-90
2021/01/08 08:04:06;;;;;;;32.70;21.17;;;102.40;2227.20;;;;;;4994850;28;20122;-88
2021/01/08 08:06:41;;;;;;;34.67;21.73;;;102.40;2227.20;;;;;;4992012;28;20136;-85
2021/01/08 08:09:10;;;;;;;24.70;17.17;;;102.50;2227.20;;;;;;4998453;28;20025;-88
2021/01/08 08:11:37;;;;;;;32.53;20.60;;;102.40;2227.20;;;;;;4999032;28;20022;-87
2021/01/08 08:14:04;;;;;;;16.87;12.30;;;102.40;2227.20;;;;;;4999962;28;20052;-88
2021/01/08 08:16:38;;;;;;;21.23;14.30;;;77.70;2227.20;;;;;;4999189;28;20034;-89
2021/01/08 08:19:05;;;;;;;24.67;16.83;;;77.60;2227.20;;;;;;4996929;28;20033;-89
2021/01/08 08:21:31;;;;;;;31.67;21.43;;;77.70;2227.20;;;;;;4997716;28;20069;-88
2021/01/08 08:23:59;;;;;;;27.33;17.03;;;77.60;2227.20;;;;;;4998443;28;20022;-88
2021/01/08 08:26:25;;;;;;;36.83;24.23;;;77.60;2227.20;;;;;;4994571;28;20036;-90
2021/01/08 08:29:12;;;;;;;31.47;23.00;;;77.60;2227.20;;;;;;5008355;28;20026;-88
2021/01/08 08:31:46;;;;;;;41.47;29.90;;;77.50;2227.20;;;;;;5014090;28;20092;-88
2021/01/08 08:34:13;;;;;;;50.03;32.60;;;77.60;2227.20;;;;;;5013779;28;20026;-85
2021/01/08 08:36:39;;;;;;;42.93;29.20;;;77.50;2227.20;;;;;;5014026;28;20357;-87
2021/01/08 08:39:13;;;;;;;61.70;39.53;;;77.50;2227.20;;;;;;5013879;28;20121;-86
2021/01/08 08:41:41;;;;;;;56.87;38.83;;;77.60;2227.20;;;;;;4994720;28;20045;-87
2021/01/08 08:44:09;;;;;;;45.33;31.00;;;77.60;2227.20;;;;;;5007462;28;20488;-84
2021/01/08 08:46:55;;;;;;;43.67;28.57;;;102.40;2227.20;;;;;;4996822;28;20030;-85
2021/01/08 08:49:28;;;;;;;56.73;38.53;;;102.50;2227.20;;;;;;4995993;28;20049;-83
2021/01/08 08:51:55;;;;;;;56.40;37.13;;;102.60;2227.20;;;;;;4995015;28;20034;-83
2021/01/08 08:54:23;;;;;;;51.53;33.40;;;102.60;2227.20;;;;;;4994104;28;20053;-86
2021/01/08 08:57:02;;;;;;;35.07;25.77;;;102.60;2227.20;;;;;;4981160;28;20030;-84
2021/01/08 08:59:39;;;;;;;32.63;20.80;;;102.50;2227.20;;;;;;4976844;28;20034;-84
2021/01/08 09:02:06;;;;;;;35.67;21.43;;;102.70;2227.20;;;;;;4978719;28;20189;-86
2021/01/08 09:04:32;;;;;;;22.00;14.03;;;102.60;2227.20;;;;;;4992952;28;20061;-86
2021/01/08 09:07:02;;;;;;;26.83;17.03;;;102.70;2227.20;;;;;;4986496;28;20041;-86
2021/01/08 09:09:38;;;;;;;38.57;26.60;;;102.60;2227.20;;;;;;4996172;28;20492;-87
2021/01/08 09:12:14;;;;;;;38.20;24.77;;;102.50;2227.20;;;;;;4997008;28;20129;-89
2021/01/08 09:14:42;;;;;;;32.10;21.50;;;102.50;2227.20;;;;;;4996455;28;20030;-85
2021/01/08 09:17:14;;;;;;;41.13;28.10;;;102.50;2227.20;;;;;;4995748;28;20037;-86
2021/01/08 09:19:53;;;;;;;31.47;21.37;;;102.60;2227.20;;;;;;4998333;28;20085;-86
2021/01/08 09:22:19;;;;;;;22.00;14.80;;;102.70;2227.20;;;;;;5000114;28;20053;-87
2021/01/08 09:24:48;;;;;;;25.60;18.23;;;102.40;2227.20;;;;;;4996484;28;20030;-88
2021/01/08 09:27:15;;;;;;;23.23;16.53;;;77.70;2227.20;;;;;;4996222;28;20380;-87
2021/01/08 09:29:42;;;;;;;26.63;18.27;;;77.60;2227.20;;;;;;4992128;28;20101;-87
2021/01/08 09:32:08;;;;;;;27.00;18.90;;;102.40;2227.20;;;;;;4976817;28;20030;-87
2021/01/08 09:34:37;;;;;;;29.50;19.00;;;102.60;2227.20;;;;;;4977408;28;20038;-87
2021/01/08 09:37:16;;;;;;;30.67;23.20;;;102.60;2227.20;;;;;;4986332;28;20058;-86
2021/01/08 09:39:43;;;;;;;35.87;24.63;;;102.60;2227.20;;;;;;4981009;28;20050;-86
2021/01/08 09:42:13;;;;;;;30.77;19.47;;;102.70;2227.20;;;;;;4981556;28;20026;-88
2021/01/08 09:44:40;;;;;;;48.27;31.57;;;102.70;2227.20;;;;;;5009274;28;20057;-87
2021/01/08 09:47:15;;;;;;;48.97;34.50;;;102.70;2227.20;;;;;;4996355;28;20061;-87
2021/01/08 09:49:47;;;;;;;38.23;27.77;;;102.80;2227.20;;;;;;4996027;28;20033;-87
2021/01/08 09:52:13;;;;;;;46.77;31.80;;;102.80;2227.20;;;;;;4996659;28;20037;-89
2021/01/08 09:54:51;;;;;;;63.57;43.70;;;102.90;2227.20;;;;;;4996677;28;20029;-88
2021/01/08 09:57:33;;;;;;;88.20;54.20;;;102.90;2227.20;;;;;;4992737;28;20026;-89
2021/01/08 10:00:06;;;;;;;110.70;73.10;;;102.70;2227.20;;;;;;4996403;28;20049;-87
2021/01/08 10:02:42;;;;;;;108.38;75.00;;;102.50;2227.20;;;;;;4996397;28;20026;-86
2021/01/08 10:05:26;;;;;;;121.57;89.37;;;102.40;2227.20;;;;;;5013031;28;20034;-87
2021/01/08 10:07:52;;;;;;;91.63;58.40;;;102.50;2227.20;;;;;;5016518;28;20033;-88
2021/01/08 10:10:39;;;;;;;82.53;60.53;;;102.60;2227.20;;;;;;5017101;28;20030;-88
2021/01/08 10:13:12;;;;;;;86.03;59.67;;;102.60;2227.20;;;;;;5016950;28;20047;-88
2021/01/08 10:15:40;;;;;;;84.07;59.90;;;102.60;2227.20;;;;;;5016671;28;20038;-87
2021/01/08 10:18:21;;;;;;;81.33;55.13;;;102.60;2227.20;;;;;;5017197;28;20032;-87
2021/01/08 10:20:51;;;;;;;92.00;62.93;;;102.60;2227.20;;;;;;5006318;28;20049;-85
2021/01/08 10:23:25;;;;;;;118.03;75.53;;;102.60;2227.20;;;;;;4990301;28;20034;-86
2021/01/08 10:26:08;;;;;;;153.27;102.57;;;102.60;2227.20;;;;;;5015779;28;20038;-87
2021/01/08 10:28:45;;;;;;;;;;;102.50;2227.20;;;;;;5003187;28;20085;-87
2021/01/08 10:31:10;;;;;;;162.07;105.33;;;102.50;2227.20;;;;;;4985506;28;20347;-83
2021/01/08 10:33:36;;;;;;;131.00;87.17;;;102.50;2227.20;;;;;;4984529;28;20023;-83
2021/01/08 10:36:02;;;;;;;162.33;97.30;;;102.50;2227.20;;;;;;5014624;28;20030;-84
2021/01/08 10:38:27;;;;;;;135.63;84.67;;;102.40;2227.20;;;;;;5005239;28;20037;-83
2021/01/08 10:40:53;;;;;;;107.43;72.57;;;103.20;2227.20;;;;;;5004460;28;20034;-85
2021/01/08 10:43:19;;;;;;;113.97;75.97;;;128.00;2252.80;;;;;;5005930;28;20037;-88
2021/01/08 10:45:45;;;;;;;98.10;66.80;;;128.10;2252.80;;;;;;5010860;28;20045;-87
2021/01/08 10:48:11;;;;;;;102.67;67.07;;;128.00;2252.80;;;;;;5023883;28;20026;-87
2021/01/08 10:50:37;;;;;;;117.40;81.60;;;103.20;2227.20;;;;;;5022650;28;20092;-85
2021/01/08 10:53:03;;;;;;;111.87;76.57;;;103.00;2227.20;;;;;;5020778;28;20439;-87
2021/01/08 10:55:28;;;;;;;108.17;73.57;;;102.80;2227.20;;;;;;5016548;28;20061;-87
2021/01/08 10:57:57;;;;;;;95.20;57.97;;;102.80;2227.20;;;;;;5016559;28;20380;-87
2021/01/08 11:00:24;;;;;;;100.87;63.03;;;102.60;2227.20;;;;;;5010705;28;20041;-86
2021/01/08 11:02:50;;;;;;;87.40;59.83;;;102.40;2227.20;;;;;;5015870;28;20029;-90
2021/01/08 11:05:16;;;;;;;99.40;72.13;;;102.40;2227.20;;;;;;5016048;28;20033;-88
2021/01/08 11:07:41;;;;;;;113.17;73.93;;;102.40;2227.20;;;;;;5016991;28;20030;-87
2021/01/08 11:10:08;;;;;;;135.93;88.40;;;102.40;2227.20;;;;;;5015923;28;20037;-90
2021/01/08 11:12:34;;;;;;;154.73;102.17;;;102.40;2227.20;;;;;;5015683;28;20383;-91
2021/01/08 11:15:01;;;;;;;154.23;105.83;;;102.40;2227.20;;;;;;5015580;28;20030;-86
2021/01/08 11:17:27;;;;;;;160.13;102.97;;;102.60;2227.20;;;;;;5014865;28;20026;-87
2021/01/08 11:19:53;;;;;;;268.70;166.03;;;102.40;2227.20;;;;;;5016361;28;20141;-86
2021/01/08 11:22:18;;;;;;;198.57;127.27;;;102.40;2227.20;;;;;;5015309;28;20061;-88
2021/01/08 11:24:44;;;;;;;198.17;122.53;;;77.70;2227.20;;;;;;5015808;28;20038;-87
2021/01/08 11:27:10;;;;;;;158.17;98.27;;;102.40;2227.20;;;;;;5016434;28;20049;-86
2021/01/08 11:29:36;;;;;;;132.00;88.73;;;102.40;2227.20;;;;;;5015756;28;20572;-87
2021/01/08 11:32:05;;;;;;;156.60;104.77;;;102.40;2227.20;;;;;;5015475;28;20515;-86
2021/01/08 11:34:31;;;;;;;158.00;110.57;;;102.40;2227.20;;;;;;5015578;28;20030;-86
2021/01/08 11:36:57;;;;;;;151.67;101.23;;;77.70;2227.20;;;;;;5015430;28;20368;-86
2021/01/08 11:39:23;;;;;;;151.07;97.97;;;77.70;2227.20;;;;;;5015313;28;20033;-91
2021/01/08 11:41:53;;;;;;;165.13;116.17;;;102.40;2227.20;;;;;;5015236;28;20037;-86
2021/01/08 11:44:19;;;;;;;147.43;101.60;;;102.40;2227.20;;;;;;5017805;28;20105;-86
2021/01/08 11:46:44;;;;;;;194.40;123.17;;;102.40;2227.20;;;;;;5015041;28;20124;-91
2021/01/08 11:49:10;;;;;;;168.27;113.80;;;102.40;2227.20;;;;;;5015113;28;20026;-86
2021/01/08 11:51:36;;;;;;;189.10;119.73;;;102.40;2227.20;;;;;;5014986;28;20042;-85
2021/01/08 11:54:01;;;;;;;178.03;113.20;;;102.40;2227.20;;;;;;5014973;28;20092;-85
2021/01/08 11:56:28;;;;;;;151.93;104.13;;;102.40;2227.20;;;;;;5014416;28;20076;-86
2021/01/08 11:58:54;;;;;;;141.83;97.13;;;102.40;2227.20;;;;;;5015964;28;20036;-85
2021/01/08 12:01:25;;;;;;;170.30;112.80;;;102.40;2227.20;;;;;;5015281;28;20033;-86
2021/01/08 12:03:52;;;;;;;145.27;100.10;;;102.40;2227.20;;;;;;5014656;28;20022;-85
2021/01/08 12:06:23;;;;;;;153.03;104.30;;;102.50;2227.20;;;;;;5015003;28;20381;-86
2021/01/08 12:08:49;;;;;;;213.30;133.83;;;102.50;2227.20;;;;;;5015014;28;20032;-86
2021/01/08 12:11:15;;;;;;;178.67;115.20;;;102.40;2227.20;;;;;;5014707;28;20030;-85
2021/01/08 12:13:43;;;;;;;170.27;109.60;;;102.50;2227.20;;;;;;5014426;28;20030;-85